< < Back
Terminal Aerodrome Forecast


Current Version              Previous Versions:   1  2  3  4  5  6  7  8  9  

Terminal Aerodrome Forecast

263
FTUS44 KMRX 281720
TAFCHA
TAF
KCHA 281720Z 2818/2918 VRB03KT P6SM VCTS BKN050CB
     FM290000 32003KT P6SM BKN060 OVC100
     FM290700 00000KT 5SM BR SCT060 BKN150
     FM291000 00000KT P6SM BKN250=

Latest METAR

613
SAUS80 KWBC 291600 RRA
MTRCHA
METAR KCHA 291553Z 36004KT 10SM SCT036 SCT210 BKN250 31/22 A3004 RMK AO2
SLP162 T03110222


USA.gov is the U.S. government's official web portal to all federal, state and local government web resources and services.